createdAt,value
2023-02-11T00:02:46.138Z,22.15
2023-02-11T00:07:49.756Z,22.63
2023-02-11T00:12:51.515Z,22.65
2023-02-11T00:17:53.775Z,22.75
2023-02-11T00:22:55.474Z,23.67
2023-02-11T00:27:57.511Z,22.50
2023-02-11T00:32:59.327Z,22.52
2023-02-11T00:38:01.014Z,22.50
2023-02-11T00:43:02.959Z,22.35
2023-02-11T00:48:04.671Z,21.35
2023-02-11T00:53:06.464Z,21.77
2023-02-11T00:58:08.241Z,22.27
2023-02-11T01:03:10.388Z,23.55
2023-02-11T01:08:12.287Z,22.02
2023-02-11T01:13:13.894Z,23.83
2023-02-11T01:18:15.560Z,21.13
2023-02-11T01:23:17.203Z,23.23
2023-02-11T01:28:27.733Z,23.35
2023-02-11T01:33:29.952Z,23.00
2023-02-11T01:38:32.052Z,23.13
2023-02-11T01:43:42.451Z,24.85
2023-02-11T01:48:47.784Z,23.58
2023-02-11T01:54:16.241Z,22.35
2023-02-11T01:59:27.666Z,24.95
2023-02-11T02:04:33.261Z,23.38
2023-02-11T02:09:40.418Z,23.35
2023-02-11T02:14:42.266Z,23.77
2023-02-11T02:20:33.103Z,23.90
2023-02-11T02:25:52.770Z,23.80
2023-02-11T02:31:15.464Z,22.90
2023-02-11T02:36:59.299Z,23.08
2023-02-11T02:42:01.722Z,25.05
2023-02-11T02:47:03.471Z,23.13
2023-02-11T02:52:10.667Z,21.25
2023-02-11T03:02:39.622Z,22.33
2023-02-11T03:08:09.813Z,22.00
2023-02-11T03:13:13.340Z,22.08
2023-02-11T03:18:18.817Z,20.67
2023-02-11T03:23:35.330Z,21.95
2023-02-11T03:28:44.295Z,22.95
2023-02-11T03:34:10.072Z,23.50
2023-02-11T03:39:19.623Z,24.52
2023-02-11T03:44:25.295Z,23.55
2023-02-11T03:49:28.226Z,23.52
2023-02-11T03:54:30.949Z,25.17
2023-02-11T03:59:32.567Z,24.58
2023-02-11T04:04:34.166Z,24.92
2023-02-11T04:09:36.838Z,25.00
2023-02-11T04:14:38.870Z,23.83
2023-02-11T04:19:40.652Z,24.85
2023-02-11T04:24:44.012Z,24.58
2023-02-11T04:29:45.654Z,23.80
2023-02-11T04:34:47.522Z,23.00
2023-02-11T04:39:49.176Z,24.52
2023-02-11T04:44:50.849Z,24.25
2023-02-11T04:49:52.479Z,25.90
2023-02-11T04:54:54.110Z,24.85
2023-02-11T04:59:55.745Z,25.70
2023-02-11T05:04:57.342Z,26.85
2023-02-11T05:09:58.951Z,28.02
2023-02-11T05:15:00.622Z,27.80
2023-02-11T05:20:02.325Z,27.23
2023-02-11T05:25:04.206Z,26.90
2023-02-11T05:30:07.022Z,27.75
2023-02-11T05:35:09.671Z,26.08
2023-02-11T05:40:11.782Z,27.50
2023-02-11T05:45:13.483Z,28.45
2023-02-11T05:50:15.246Z,29.33
2023-02-11T05:55:16.878Z,29.42
2023-02-11T06:00:18.989Z,30.00
2023-02-11T06:05:20.711Z,29.20
2023-02-11T06:10:22.503Z,29.95
2023-02-11T06:15:24.093Z,30.10
2023-02-11T06:20:25.701Z,28.42
2023-02-11T06:25:27.415Z,28.60
2023-02-11T06:30:29.087Z,28.27
2023-02-11T06:35:30.911Z,27.65
2023-02-11T06:40:32.544Z,28.42
2023-02-11T06:45:34.325Z,27.33
2023-02-11T06:50:36.012Z,29.27
2023-02-11T06:55:37.636Z,28.60
2023-02-11T07:00:39.270Z,30.20
2023-02-11T07:05:43.849Z,29.15
2023-02-11T07:10:45.528Z,32.00
2023-02-11T07:15:47.210Z,30.85
2023-02-11T07:20:48.841Z,32.03
2023-02-11T07:25:50.865Z,33.75
2023-02-11T07:30:53.183Z,32.42
2023-02-11T07:35:54.890Z,32.42
2023-02-11T07:41:11.777Z,33.88
2023-02-11T07:46:19.716Z,32.78
2023-02-11T07:51:29.833Z,32.72
2023-02-11T07:56:32.864Z,32.45
2023-02-11T08:01:34.709Z,31.92
2023-02-11T08:06:41.310Z,30.73
2023-02-11T08:11:43.642Z,30.42
2023-02-11T08:16:45.378Z,31.58
2023-02-11T08:21:47.466Z,30.38
2023-02-11T08:26:49.670Z,28.02
2023-02-11T08:31:51.570Z,27.95
2023-02-11T08:36:53.989Z,26.65
2023-02-11T08:41:56.878Z,27.55
2023-02-11T08:46:58.571Z,27.30
2023-02-11T08:52:04.203Z,28.98
2023-02-11T08:57:05.818Z,26.58
2023-02-11T09:02:12.592Z,27.00
2023-02-11T09:07:14.389Z,28.30
2023-02-11T09:12:16.041Z,26.85
2023-02-11T09:17:17.796Z,28.85
2023-02-11T09:22:19.432Z,28.20
2023-02-11T09:27:21.081Z,29.73
2023-02-11T09:32:22.673Z,30.15
2023-02-11T09:37:24.285Z,30.08
2023-02-11T09:42:39.015Z,29.05
2023-02-11T09:47:59.753Z,29.42
2023-02-11T09:53:17.937Z,30.88
2023-02-11T09:58:26.387Z,28.40
2023-02-11T10:03:49.795Z,28.40
2023-02-11T10:09:01.715Z,29.85
2023-02-11T10:14:41.050Z,29.60
2023-02-11T10:20:16.488Z,29.10
2023-02-11T10:25:26.539Z,29.27
2023-02-11T10:30:37.249Z,29.67
2023-02-11T10:35:39.048Z,28.58
2023-02-11T10:40:40.783Z,28.38
2023-02-11T10:45:45.344Z,29.20
2023-02-11T10:50:47.039Z,28.77
2023-02-11T10:55:54.742Z,27.58
2023-02-11T11:00:59.663Z,27.75
2023-02-11T11:06:04.301Z,26.13
2023-02-11T11:11:09.030Z,26.50
2023-02-11T11:16:13.893Z,29.50
2023-02-11T11:21:22.628Z,26.73
2023-02-11T11:26:29.581Z,26.98
2023-02-11T11:31:45.275Z,25.52
2023-02-11T11:36:48.011Z,26.00
2023-02-11T11:41:52.702Z,26.63
2023-02-11T11:47:22.658Z,25.92
2023-02-11T11:52:40.590Z,25.50
2023-02-11T11:57:42.307Z,26.65
2023-02-11T12:03:22.187Z,25.42
2023-02-11T12:08:45.287Z,25.73
2023-02-11T12:14:06.830Z,25.85
2023-02-11T12:19:25.538Z,25.60
2023-02-11T12:25:26.319Z,26.45
2023-02-11T12:30:54.588Z,26.23
2023-02-11T12:36:20.686Z,25.60
2023-02-11T12:41:45.598Z,27.42
2023-02-11T12:47:03.900Z,26.88
2023-02-11T12:52:18.396Z,25.48
2023-02-11T12:57:26.549Z,27.10
2023-02-11T13:02:58.989Z,27.00
2023-02-11T13:08:21.064Z,25.67
2023-02-11T13:13:28.508Z,25.25
2023-02-11T13:18:44.089Z,26.95
2023-02-11T13:23:48.774Z,26.63
2023-02-11T13:29:13.588Z,25.80
2023-02-11T13:34:54.218Z,25.95
2023-02-11T13:40:21.285Z,25.65
2023-02-11T13:50:27.097Z,23.77
2023-02-11T13:55:30.516Z,25.77
2023-02-11T14:00:35.179Z,23.23
2023-02-11T14:05:55.572Z,24.65
2023-02-11T14:11:03.282Z,29.02
2023-02-11T14:16:13.622Z,27.75
2023-02-11T14:21:32.467Z,36.72
2023-02-11T14:26:40.144Z,28.83
2023-02-11T14:32:04.671Z,26.08
2023-02-11T14:37:50.464Z,23.15
2023-02-11T14:42:54.817Z,24.27
2023-02-11T14:48:08.353Z,24.67
2023-02-11T14:53:17.050Z,24.73
2023-02-11T14:58:23.077Z,25.40
2023-02-11T15:03:41.168Z,24.33
2023-02-11T15:09:03.579Z,26.38
2023-02-11T15:14:23.268Z,25.45
2023-02-11T15:19:33.061Z,23.83
2023-02-11T15:24:35.943Z,23.70
2023-02-11T15:29:40.925Z,22.88
2023-02-11T15:34:44.213Z,24.33
2023-02-11T15:39:46.097Z,22.90
2023-02-11T15:44:56.359Z,22.98
2023-02-11T15:49:58.974Z,22.73
2023-02-11T15:55:02.850Z,24.02
2023-02-11T16:00:07.175Z,23.85
2023-02-11T16:05:35.837Z,27.98
2023-02-11T16:10:38.858Z,31.23
2023-02-11T16:15:51.023Z,28.92
2023-02-11T16:20:53.682Z,26.05
2023-02-11T16:26:21.552Z,26.40
2023-02-11T16:31:23.468Z,26.30
2023-02-11T16:36:25.558Z,25.63
2023-02-11T16:41:27.334Z,27.98
2023-02-11T16:46:30.684Z,30.60
2023-02-11T16:51:32.297Z,31.88
2023-02-11T16:56:33.955Z,31.98
2023-02-11T17:01:38.397Z,34.38
2023-02-11T17:06:40.041Z,37.13
2023-02-11T17:11:41.692Z,32.97
2023-02-11T17:16:45.362Z,33.22
2023-02-11T17:21:49.571Z,32.72
2023-02-11T17:26:51.317Z,32.70
2023-02-11T17:31:53.801Z,32.67
2023-02-11T17:36:55.819Z,29.38
2023-02-11T17:41:57.768Z,29.90
2023-02-11T17:46:59.438Z,32.55
2023-02-11T17:52:01.199Z,30.80
2023-02-11T17:57:02.874Z,29.33
2023-02-11T18:02:05.210Z,31.55
2023-02-11T18:07:07.455Z,28.88
2023-02-11T18:12:10.883Z,30.00
2023-02-11T18:17:15.753Z,29.42
2023-02-11T18:22:17.990Z,28.10
2023-02-11T18:27:20.707Z,28.58
2023-02-11T18:32:22.422Z,27.73
2023-02-11T18:37:24.211Z,29.92
2023-02-11T18:42:25.989Z,30.10
2023-02-11T18:47:27.889Z,30.05
2023-02-11T18:52:31.264Z,30.67
2023-02-11T18:57:32.938Z,30.00
2023-02-11T19:02:34.572Z,30.52
2023-02-11T19:07:36.224Z,30.65
2023-02-11T19:12:39.243Z,29.25
2023-02-11T19:17:40.913Z,29.63
2023-02-11T19:22:42.758Z,29.00
2023-02-11T19:27:44.385Z,27.27
2023-02-11T19:32:46.110Z,25.92
2023-02-11T19:37:47.808Z,23.92
2023-02-11T19:42:49.508Z,24.38
2023-02-11T19:47:55.253Z,23.15
2023-02-11T19:52:56.922Z,23.23
2023-02-11T19:57:58.592Z,24.92
2023-02-11T20:03:00.308Z,24.48
2023-02-11T20:08:02.032Z,25.85
2023-02-11T20:13:03.975Z,24.90
2023-02-11T20:18:05.756Z,24.63
2023-02-11T20:23:07.424Z,22.45
2023-02-11T20:28:09.121Z,22.65
2023-02-11T20:33:20.541Z,22.55
2023-02-11T20:38:22.264Z,21.98
2023-02-11T20:43:23.909Z,23.90
2023-02-11T20:48:25.549Z,23.55
2023-02-11T20:53:27.204Z,23.25
2023-02-11T20:58:28.966Z,22.90
2023-02-11T21:03:30.730Z,24.45
2023-02-11T21:08:32.443Z,24.73
2023-02-11T21:13:34.325Z,25.63
2023-02-11T21:18:36.652Z,25.42
2023-02-11T21:23:39.820Z,27.20
2023-02-11T21:28:41.710Z,26.70
2023-02-11T21:33:43.474Z,25.88
2023-02-11T21:38:45.218Z,24.17
2023-02-11T21:43:46.900Z,25.20
2023-02-11T21:48:49.087Z,24.48
2023-02-11T21:53:59.612Z,24.00
2023-02-11T21:59:01.465Z,25.90
2023-02-11T22:04:04.005Z,27.33
2023-02-11T22:09:08.246Z,30.05
2023-02-11T22:14:09.984Z,31.00
2023-02-11T22:19:11.736Z,30.77
2023-02-11T22:24:13.581Z,31.08
2023-02-11T22:29:15.216Z,32.33
2023-02-11T22:34:16.910Z,33.13
2023-02-11T22:39:18.633Z,32.60
2023-02-11T22:44:21.528Z,32.03
2023-02-11T22:49:23.324Z,34.00
2023-02-11T22:54:25.590Z,31.92
2023-02-11T22:59:27.278Z,31.20
2023-02-11T23:04:29.004Z,33.58
2023-02-11T23:09:30.677Z,33.60
2023-02-11T23:14:32.408Z,33.35
2023-02-11T23:19:34.073Z,36.42
2023-02-11T23:24:37.023Z,35.88
2023-02-11T23:29:38.695Z,37.50
2023-02-11T23:34:40.439Z,40.45
2023-02-11T23:39:42.109Z,38.83
2023-02-11T23:44:43.752Z,39.22
2023-02-11T23:49:45.432Z,38.15
2023-02-11T23:54:48.232Z,40.17
2023-02-11T23:59:50.458Z,39.90
